createdAt,value
2022-12-09T06:49:54.105Z,10.07
2022-12-09T06:52:56.310Z,11.02
2022-12-09T06:56:11.088Z,13.65
2022-12-09T06:59:17.489Z,12.68
2022-12-09T07:02:20.593Z,11.02
2022-12-09T07:05:24.316Z,12.02
2022-12-09T07:08:26.911Z,10.70
2022-12-09T07:11:30.390Z,12.35
2022-12-09T07:14:32.704Z,14.00
2022-12-09T07:17:35.379Z,13.63
2022-12-09T07:20:37.959Z,14.35
2022-12-09T07:23:40.848Z,12.93
2022-12-09T07:26:43.411Z,14.32
2022-12-09T07:29:45.802Z,14.38
2022-12-09T07:32:48.730Z,12.82
2022-12-09T07:35:50.908Z,15.70
2022-12-09T07:38:59.431Z,11.93
2022-12-09T07:42:01.607Z,11.70
2022-12-09T07:45:04.919Z,11.25
2022-12-09T07:48:08.877Z,12.30
2022-12-09T07:51:12.093Z,12.88
2022-12-09T07:54:16.379Z,13.52
2022-12-09T07:57:19.014Z,13.30
2022-12-09T08:00:22.010Z,12.95
2022-12-09T08:03:24.721Z,14.00
2022-12-09T08:06:29.372Z,14.07
2022-12-09T08:09:32.138Z,13.52
2022-12-09T08:12:34.381Z,12.93
2022-12-09T08:15:36.574Z,13.40
2022-12-09T08:18:39.047Z,11.70
2022-12-09T08:21:41.538Z,12.73
2022-12-09T08:24:43.568Z,13.75
2022-12-09T08:27:45.657Z,13.02
2022-12-09T08:30:47.752Z,12.68
2022-12-09T08:33:50.712Z,13.32
2022-12-09T08:36:56.991Z,13.52
2022-12-09T08:40:02.851Z,13.15
2022-12-09T08:43:07.030Z,11.68
2022-12-09T08:46:09.762Z,13.47
2022-12-09T08:49:13.534Z,12.45
2022-12-09T08:52:15.747Z,11.85
2022-12-09T08:55:18.271Z,12.32
2022-12-09T08:58:20.529Z,10.93
2022-12-09T09:01:26.115Z,12.02
2022-12-09T09:04:28.213Z,12.82
2022-12-09T09:07:31.312Z,12.10
2022-12-09T09:10:34.118Z,12.23
2022-12-09T09:13:38.016Z,11.05
2022-12-09T09:16:42.051Z,11.57
2022-12-09T09:19:44.125Z,10.67
2022-12-09T09:22:47.004Z,11.82
2022-12-09T09:25:49.745Z,12.07
2022-12-09T09:28:52.413Z,11.75
2022-12-09T09:31:55.367Z,11.82
2022-12-09T09:34:58.618Z,11.23
2022-12-09T09:38:02.506Z,11.93
2022-12-09T09:41:17.304Z,10.52
2022-12-09T09:44:34.687Z,9.93
2022-12-09T09:47:43.509Z,12.75
2022-12-09T09:50:55.072Z,13.77
2022-12-09T09:53:57.372Z,13.43
2022-12-09T09:57:10.344Z,12.18
2022-12-09T10:00:35.400Z,11.63
2022-12-09T10:04:18.199Z,11.25
2022-12-09T10:07:29.077Z,11.80
2022-12-09T10:10:47.417Z,12.30
2022-12-09T10:14:15.677Z,12.27
2022-12-09T10:17:29.251Z,11.77
2022-12-09T10:20:33.134Z,13.38
2022-12-09T10:23:35.231Z,12.63
2022-12-09T10:26:38.726Z,12.93
2022-12-09T10:29:54.476Z,12.43
2022-12-09T10:32:57.113Z,14.27
2022-12-09T10:35:59.321Z,13.45
2022-12-09T10:39:01.764Z,12.80
2022-12-09T10:42:34.759Z,13.15
2022-12-09T10:49:22.702Z,11.82
2022-12-09T10:52:28.397Z,12.98
2022-12-09T10:55:35.713Z,11.90
2022-12-09T10:58:38.018Z,12.80
2022-12-09T11:01:58.633Z,13.85
2022-12-09T11:05:24.132Z,12.65
2022-12-09T11:11:49.776Z,13.77
2022-12-09T11:15:13.458Z,12.45
2022-12-09T11:18:38.052Z,13.05
2022-12-09T11:21:40.284Z,13.02
2022-12-09T11:24:42.456Z,14.63
2022-12-09T11:28:02.136Z,13.75
2022-12-09T11:31:45.812Z,15.00
2022-12-09T11:34:38.771Z,14.57
2022-12-09T11:37:40.909Z,15.75
2022-12-09T11:40:43.024Z,15.35
2022-12-09T11:43:49.025Z,16.25
2022-12-09T11:47:02.452Z,14.98
2022-12-09T11:50:19.186Z,15.68
2022-12-09T11:53:29.048Z,17.50
2022-12-09T11:56:32.848Z,14.40
2022-12-09T11:59:43.740Z,14.70
2022-12-09T12:03:03.031Z,18.05
2022-12-09T12:06:13.751Z,14.63
2022-12-09T12:09:26.961Z,15.60
2022-12-09T12:12:54.883Z,16.58
2022-12-09T12:16:16.376Z,15.80
2022-12-09T12:19:27.776Z,16.17
2022-12-09T12:22:59.116Z,17.10
2022-12-09T12:26:23.240Z,16.88
2022-12-09T12:30:05.037Z,17.35
2022-12-09T12:37:41.191Z,16.30
2022-12-09T12:40:58.106Z,17.90
2022-12-09T12:44:43.830Z,17.77
2022-12-09T12:47:57.640Z,17.25
2022-12-09T12:51:31.742Z,18.20
2022-12-09T12:54:57.188Z,17.95
2022-12-09T12:58:39.075Z,18.92
2022-12-09T13:01:54.905Z,19.38
2022-12-09T13:05:04.198Z,18.35
2022-12-09T13:08:29.996Z,18.65
2022-12-09T13:14:52.110Z,18.58
2022-12-09T13:17:54.670Z,19.20
2022-12-09T13:20:58.847Z,19.30
2022-12-09T13:24:26.971Z,19.53
2022-12-09T13:27:51.510Z,19.83
2022-12-09T13:30:58.616Z,19.88
2022-12-09T13:34:25.689Z,19.58
2022-12-09T13:37:43.843Z,20.38
2022-12-09T13:40:45.646Z,19.83
2022-12-09T13:43:47.398Z,21.90
2022-12-09T13:46:49.291Z,21.90
2022-12-09T13:49:56.797Z,22.02
2022-12-09T13:53:02.528Z,21.63
2022-12-09T13:56:18.949Z,19.83
2022-12-09T13:59:43.497Z,20.80
2022-12-09T14:02:57.229Z,19.63
2022-12-09T14:06:01.934Z,19.95
2022-12-09T14:09:18.797Z,19.55
2022-12-09T14:12:28.801Z,19.33
2022-12-09T14:15:30.574Z,19.52
2022-12-09T14:18:33.225Z,22.27
2022-12-09T14:21:35.261Z,19.80
2022-12-09T14:24:38.004Z,21.17
2022-12-09T14:27:39.784Z,20.38
2022-12-09T14:30:50.599Z,20.35
2022-12-09T14:33:52.512Z,20.35
2022-12-09T14:37:19.274Z,20.65
2022-12-09T14:41:00.896Z,19.30
2022-12-09T14:44:28.915Z,19.15
2022-12-09T14:47:33.619Z,19.65
2022-12-09T14:50:38.521Z,20.25
2022-12-09T14:53:40.396Z,19.77
2022-12-09T14:56:48.218Z,20.65
2022-12-09T14:59:52.931Z,19.77
2022-12-09T15:03:30.057Z,19.67
2022-12-09T15:06:19.088Z,19.98
2022-12-09T15:09:21.295Z,20.73
2022-12-09T15:12:35.083Z,19.13
2022-12-09T15:15:39.482Z,18.65
2022-12-09T15:18:42.794Z,21.08
2022-12-09T15:21:46.898Z,21.13
2022-12-09T15:24:50.451Z,21.13
2022-12-09T15:27:59.181Z,19.67
2022-12-09T15:31:05.361Z,20.15
2022-12-09T15:34:14.709Z,20.23
2022-12-09T15:37:19.218Z,21.80
2022-12-09T15:40:22.446Z,20.67
2022-12-09T15:43:24.268Z,21.02
2022-12-09T15:46:27.392Z,22.17
2022-12-09T15:49:35.460Z,19.85
2022-12-09T15:52:43.498Z,20.70
2022-12-09T15:55:50.514Z,21.83
2022-12-09T15:58:57.066Z,22.17
2022-12-09T16:02:00.337Z,22.00
2022-12-09T16:05:05.344Z,20.50
2022-12-09T16:08:07.176Z,22.67
2022-12-09T16:11:09.831Z,21.13
2022-12-09T16:14:12.967Z,20.05
2022-12-09T16:17:23.047Z,21.50
2022-12-09T16:20:45.169Z,19.52
2022-12-09T16:23:51.327Z,21.63
2022-12-09T16:26:54.770Z,20.73
2022-12-09T16:30:01.482Z,22.77
2022-12-09T16:33:03.727Z,21.20
2022-12-09T16:36:07.231Z,20.92
2022-12-09T16:39:08.926Z,23.00
2022-12-09T16:42:35.197Z,20.77
2022-12-09T16:45:40.661Z,21.75
2022-12-09T16:48:42.593Z,21.10
2022-12-09T16:51:44.526Z,21.05
2022-12-09T16:54:48.090Z,20.58
2022-12-09T16:57:50.684Z,22.52
